sensor_id;sensor_type;location;lat;lon;timestamp;pressure;altitude;pressure_sealevel;temperature;humidity
76478;BME280;65309;49.790;18.972;2024-03-02T00:01:18;60133.78;;;-145.46;100.00
76478;BME280;65309;49.790;18.972;2024-03-02T00:06:22;60100.13;;;-145.46;100.00
76478;BME280;65309;49.790;18.972;2024-03-02T00:11:25;60108.56;;;-145.46;100.00
76478;BME280;65309;49.790;18.972;2024-03-02T00:16:30;60125.38;;;-145.46;100.00
76478;BME280;65309;49.790;18.972;2024-03-02T00:21:34;60148.50;;;-145.46;100.00
76478;BME280;65309;49.790;18.972;2024-03-02T00:26:36;60154.81;;;-145.46;100.00
76478;BME280;65309;49.790;18.972;2024-03-02T00:31:39;60154.81;;;-145.46;100.00
76478;BME280;65309;49.790;18.972;2024-03-02T00:36:43;60142.19;;;-145.46;100.00
76478;BME280;65309;49.790;18.972;2024-03-02T00:41:45;60137.97;;;-145.46;100.00
76478;BME280;65309;49.790;18.972;2024-03-02T00:46:48;60102.25;;;-145.46;100.00
76478;BME280;65309;49.790;18.972;2024-03-02T00:51:52;60140.09;;;-145.46;100.00
76478;BME280;65309;49.790;18.972;2024-03-02T00:56:55;60129.56;;;-145.46;100.00
76478;BME280;65309;49.790;18.972;2024-03-02T01:02:00;60119.06;;;-145.46;100.00
76478;BME280;65309;49.790;18.972;2024-03-02T01:07:04;60127.47;;;-145.46;100.00
76478;BME280;65309;49.790;18.972;2024-03-02T01:12:07;60142.19;;;-145.46;100.00
76478;BME280;65309;49.790;18.972;2024-03-02T01:17:09;60146.38;;;-145.46;100.00
76478;BME280;65309;49.790;18.972;2024-03-02T01:22:13;60123.25;;;-145.46;100.00
76478;BME280;65309;49.790;18.972;2024-03-02T01:27:15;60123.25;;;-145.46;100.00
76478;BME280;65309;49.790;18.972;2024-03-02T01:32:17;60167.41;;;-145.46;100.00
76478;BME280;65309;49.790;18.972;2024-03-02T01:37:21;60144.28;;;-145.46;100.00
76478;BME280;65309;49.790;18.972;2024-03-02T01:42:23;60156.91;;;-145.46;100.00
76478;BME280;65309;49.790;18.972;2024-03-02T01:47:26;60142.19;;;-145.46;100.00
76478;BME280;65309;49.790;18.972;2024-03-02T01:52:30;60114.84;;;-145.46;100.00
76478;BME280;65309;49.790;18.972;2024-03-02T01:57:32;60133.78;;;-145.46;100.00
76478;BME280;65309;49.790;18.972;2024-03-02T02:02:35;60161.09;;;-145.46;100.00
76478;BME280;65309;49.790;18.972;2024-03-02T02:07:39;60161.09;;;-145.46;100.00
76478;BME280;65309;49.790;18.972;2024-03-02T02:12:42;60163.22;;;-145.46;100.00
76478;BME280;65309;49.790;18.972;2024-03-02T02:17:44;60127.47;;;-145.46;100.00
76478;BME280;65309;49.790;18.972;2024-03-02T02:22:55;60146.38;;;-145.46;100.00
76478;BME280;65309;49.790;18.972;2024-03-02T02:27:57;60127.47;;;-145.46;100.00
76478;BME280;65309;49.790;18.972;2024-03-02T02:33:00;60148.50;;;-145.46;100.00
76478;BME280;65309;49.790;18.972;2024-03-02T02:38:05;60129.56;;;-145.46;100.00
76478;BME280;65309;49.790;18.972;2024-03-02T02:43:07;60150.59;;;-145.46;100.00
76478;BME280;65309;49.790;18.972;2024-03-02T02:48:09;60125.38;;;-145.46;100.00
76478;BME280;65309;49.790;18.972;2024-03-02T02:53:13;60175.81;;;-145.46;100.00
76478;BME280;65309;49.790;18.972;2024-03-02T02:58:15;60146.38;;;-145.46;100.00
76478;BME280;65309;49.790;18.972;2024-03-02T03:03:17;60192.63;;;-145.46;100.00
76478;BME280;65309;49.790;18.972;2024-03-02T03:08:21;60116.97;;;-145.46;100.00
76478;BME280;65309;49.790;18.972;2024-03-02T03:13:25;60131.69;;;-145.46;100.00
76478;BME280;65309;49.790;18.972;2024-03-02T03:18:27;60156.91;;;-145.46;100.00
76478;BME280;65309;49.790;18.972;2024-03-02T03:23:31;60125.38;;;-145.46;100.00
76478;BME280;65309;49.790;18.972;2024-03-02T03:28:33;60177.94;;;-145.46;100.00
76478;BME280;65309;49.790;18.972;2024-03-02T03:33:35;60137.97;;;-145.46;100.00
76478;BME280;65309;49.790;18.972;2024-03-02T03:38:39;60112.75;;;-145.46;100.00
76478;BME280;65309;49.790;18.972;2024-03-02T03:43:41;60188.44;;;-145.46;100.00
76478;BME280;65309;49.790;18.972;2024-03-02T03:48:43;60152.69;;;-145.46;100.00
76478;BME280;65309;49.790;18.972;2024-03-02T03:53:47;60165.31;;;-145.46;100.00
76478;BME280;65309;49.790;18.972;2024-03-02T03:58:49;60125.38;;;-145.46;100.00
76478;BME280;65309;49.790;18.972;2024-03-02T04:03:51;60144.28;;;-145.46;100.00
76478;BME280;65309;49.790;18.972;2024-03-02T04:08:55;60159.00;;;-145.46;100.00
76478;BME280;65309;49.790;18.972;2024-03-02T04:13:57;60127.47;;;-145.46;100.00
76478;BME280;65309;49.790;18.972;2024-03-02T04:19:00;60159.00;;;-145.46;100.00
76478;BME280;65309;49.790;18.972;2024-03-02T04:24:04;60163.22;;;-145.46;100.00
76478;BME280;65309;49.790;18.972;2024-03-02T04:29:06;60180.03;;;-145.46;100.00
76478;BME280;65309;49.790;18.972;2024-03-02T04:34:08;60152.69;;;-145.46;100.00
76478;BME280;65309;49.790;18.972;2024-03-02T04:39:12;60135.88;;;-145.46;100.00
76478;BME280;65309;49.790;18.972;2024-03-02T04:44:14;60154.81;;;-145.46;100.00
76478;BME280;65309;49.790;18.972;2024-03-02T04:49:16;60142.19;;;-145.46;100.00
76478;BME280;65309;49.790;18.972;2024-03-02T04:54:20;60121.16;;;-145.46;100.00
76478;BME280;65309;49.790;18.972;2024-03-02T04:59:22;60159.00;;;-145.46;100.00
76478;BME280;65309;49.790;18.972;2024-03-02T05:04:24;60159.00;;;-145.46;100.00
76478;BME280;65309;49.790;18.972;2024-03-02T05:09:28;60144.28;;;-145.46;100.00
76478;BME280;65309;49.790;18.972;2024-03-02T05:14:30;60146.38;;;-145.46;100.00
76478;BME280;65309;49.790;18.972;2024-03-02T05:19:32;60125.38;;;-145.46;100.00
76478;BME280;65309;49.790;18.972;2024-03-02T05:24:36;60163.22;;;-145.46;100.00
76478;BME280;65309;49.790;18.972;2024-03-02T05:29:38;60163.22;;;-145.46;100.00
76478;BME280;65309;49.790;18.972;2024-03-02T05:34:41;60133.78;;;-145.46;100.00
76478;BME280;65309;49.790;18.972;2024-03-02T05:39:44;60121.16;;;-145.46;100.00
76478;BME280;65309;49.790;18.972;2024-03-02T05:44:46;60150.59;;;-145.46;100.00
76478;BME280;65309;49.790;18.972;2024-03-02T05:49:49;60175.81;;;-145.46;100.00
76478;BME280;65309;49.790;18.972;2024-03-02T05:54:53;60112.75;;;-145.46;100.00
76478;BME280;65309;49.790;18.972;2024-03-02T05:59:55;60152.69;;;-145.46;100.00
76478;BME280;65309;49.790;18.972;2024-03-02T06:04:58;60137.97;;;-145.46;100.00
76478;BME280;65309;49.790;18.972;2024-03-02T06:10:02;60146.38;;;-145.46;100.00
76478;BME280;65309;49.790;18.972;2024-03-02T06:15:05;60121.16;;;-145.46;100.00
76478;BME280;65309;49.790;18.972;2024-03-02T06:20:08;60148.50;;;-145.46;100.00
76478;BME280;65309;49.790;18.972;2024-03-02T06:25:13;60137.97;;;-145.46;100.00
76478;BME280;65309;49.790;18.972;2024-03-02T06:30:15;60180.03;;;-145.46;100.00
76478;BME280;65309;49.790;18.972;2024-03-02T06:35:17;60163.22;;;-145.46;100.00
76478;BME280;65309;49.790;18.972;2024-03-02T06:40:21;60140.09;;;-145.46;100.00
76478;BME280;65309;49.790;18.972;2024-03-02T06:45:23;60137.97;;;-145.46;100.00
76478;BME280;65309;49.790;18.972;2024-03-02T06:50:26;60123.25;;;-145.46;100.00
76478;BME280;65309;49.790;18.972;2024-03-02T06:55:29;60159.00;;;-145.46;100.00
76478;BME280;65309;49.790;18.972;2024-03-02T07:00:31;60135.88;;;-145.46;100.00
76478;BME280;65309;49.790;18.972;2024-03-02T07:05:34;60159.00;;;-145.46;100.00
76478;BME280;65309;49.790;18.972;2024-03-02T07:10:38;60133.78;;;-145.46;100.00
76478;BME280;65309;49.790;18.972;2024-03-02T07:15:40;60142.19;;;-145.46;100.00
76478;BME280;65309;49.790;18.972;2024-03-02T07:21:05;60102.25;;;-145.46;100.00
76478;BME280;65309;49.790;18.972;2024-03-02T07:26:09;60159.00;;;-145.46;100.00
76478;BME280;65309;49.790;18.972;2024-03-02T07:31:15;60152.69;;;-145.46;100.00
76478;BME280;65309;49.790;18.972;2024-03-02T07:36:17;60121.16;;;-145.46;100.00
76478;BME280;65309;49.790;18.972;2024-03-02T07:41:22;60116.97;;;-145.46;100.00
76478;BME280;65309;49.790;18.972;2024-03-02T07:46:24;60091.72;;;-145.46;100.00
76478;BME280;65309;49.790;18.972;2024-03-02T07:51:27;60110.66;;;-145.46;100.00
76478;BME280;65309;49.790;18.972;2024-03-02T07:56:31;60133.78;;;-145.46;100.00
76478;BME280;65309;49.790;18.972;2024-03-02T08:01:33;60121.16;;;-145.46;100.00
76478;BME280;65309;49.790;18.972;2024-03-02T08:06:35;60098.03;;;-145.46;100.00
76478;BME280;65309;49.790;18.972;2024-03-02T08:11:39;60112.75;;;-145.46;100.00
76478;BME280;65309;49.790;18.972;2024-03-02T08:16:41;60116.97;;;-145.46;100.00
76478;BME280;65309;49.790;18.972;2024-03-02T08:21:44;60131.69;;;-145.46;100.00
76478;BME280;65309;49.790;18.972;2024-03-02T08:26:48;60121.16;;;-145.46;100.00
76478;BME280;65309;49.790;18.972;2024-03-02T08:31:50;60091.72;;;-145.46;100.00
76478;BME280;65309;49.790;18.972;2024-03-02T08:36:52;60083.31;;;-145.46;100.00
76478;BME280;65309;49.790;18.972;2024-03-02T08:41:55;60060.19;;;-145.46;100.00
76478;BME280;65309;49.790;18.972;2024-03-02T08:46:58;60083.31;;;-145.46;100.00
76478;BME280;65309;49.790;18.972;2024-03-02T08:52:00;60100.13;;;-145.46;97.12
76478;BME280;65309;49.790;18.972;2024-03-02T08:57:05;60053.91;;;-145.46;97.80
76478;BME280;65309;49.790;18.972;2024-03-02T09:02:07;60074.91;;;-145.46;98.05
76478;BME280;65309;49.790;18.972;2024-03-02T09:07:09;60074.91;;;-145.46;91.43
76478;BME280;65309;49.790;18.972;2024-03-02T09:12:12;60129.56;;;-145.46;91.87
76478;BME280;65309;49.790;18.972;2024-03-02T09:17:15;60077.00;;;-145.46;94.44
76478;BME280;65309;49.790;18.972;2024-03-02T09:22:17;60108.56;;;-145.46;94.48
76478;BME280;65309;49.790;18.972;2024-03-02T09:27:21;60110.66;;;-145.46;93.76
76478;BME280;65309;49.790;18.972;2024-03-02T09:32:23;60058.09;;;-145.46;94.91
76478;BME280;65309;49.790;18.972;2024-03-02T09:37:26;60083.31;;;-145.46;95.53
76478;BME280;65309;49.790;18.972;2024-03-02T09:42:30;60087.53;;;-145.46;95.34
76478;BME280;65309;49.790;18.972;2024-03-02T09:47:32;60089.63;;;-145.46;96.96
76478;BME280;65309;49.790;18.972;2024-03-02T09:52:36;60070.72;;;-145.46;96.75
76478;BME280;65309;49.790;18.972;2024-03-02T09:57:39;60070.72;;;-145.46;97.21
76478;BME280;65309;49.790;18.972;2024-03-02T10:02:44;60081.22;;;-145.46;96.70
76478;BME280;65309;49.790;18.972;2024-03-02T10:07:58;60095.94;;;-145.46;96.15
76478;BME280;65309;49.790;18.972;2024-03-02T10:13:05;60110.66;;;-145.46;97.78
76478;BME280;65309;49.790;18.972;2024-03-02T10:18:09;60129.56;;;-145.46;97.04
76478;BME280;65309;49.790;18.972;2024-03-02T10:23:13;60091.72;;;-145.46;96.72
76478;BME280;65309;49.790;18.972;2024-03-02T10:28:17;60083.31;;;-145.46;99.19
76478;BME280;65309;49.790;18.972;2024-03-02T10:33:20;60085.44;;;-145.46;100.00
76478;BME280;65309;49.790;18.972;2024-03-02T10:38:22;60070.72;;;-145.46;100.00
76478;BME280;65309;49.790;18.972;2024-03-02T10:43:26;60095.94;;;-145.46;100.00
76478;BME280;65309;49.790;18.972;2024-03-02T10:48:28;60087.53;;;-145.46;100.00
76478;BME280;65309;49.790;18.972;2024-03-02T10:53:32;60093.84;;;-145.46;100.00
76478;BME280;65309;49.790;18.972;2024-03-02T10:58:36;60127.47;;;-145.46;100.00
76478;BME280;65309;49.790;18.972;2024-03-02T11:03:40;60087.53;;;-145.46;100.00
76478;BME280;65309;49.790;18.972;2024-03-02T11:08:47;60112.75;;;-145.46;100.00
76478;BME280;65309;49.790;18.972;2024-03-02T11:13:55;60083.31;;;-145.46;100.00
76478;BME280;65309;49.790;18.972;2024-03-02T11:18:59;60104.34;;;-145.46;100.00
76478;BME280;65309;49.790;18.972;2024-03-02T11:24:28;60098.03;;;-145.46;100.00
76478;BME280;65309;49.790;18.972;2024-03-02T11:29:46;60062.31;;;-145.46;100.00
76478;BME280;65309;49.790;18.972;2024-03-02T11:34:50;60032.88;;;-145.46;100.00
76478;BME280;65309;49.790;18.972;2024-03-02T11:39:52;60106.44;;;-145.46;100.00
76478;BME280;65309;49.790;18.972;2024-03-02T11:44:56;60104.34;;;-145.46;100.00
76478;BME280;65309;49.790;18.972;2024-03-02T11:49:59;60108.56;;;-145.46;100.00
76478;BME280;65309;49.790;18.972;2024-03-02T11:55:02;60077.00;;;-145.46;100.00
76478;BME280;65309;49.790;18.972;2024-03-02T12:00:16;60116.97;;;-145.46;100.00
76478;BME280;65309;49.790;18.972;2024-03-02T12:05:19;60100.13;;;-145.46;100.00
76478;BME280;65309;49.790;18.972;2024-03-02T12:10:21;60074.91;;;-145.46;100.00
76478;BME280;65309;49.790;18.972;2024-03-02T12:15:26;60104.34;;;-145.46;99.32
76478;BME280;65309;49.790;18.972;2024-03-02T12:20:30;60116.97;;;-145.46;99.19
76478;BME280;65309;49.790;18.972;2024-03-02T12:25:32;60079.13;;;-145.46;99.54
76478;BME280;65309;49.790;18.972;2024-03-02T12:30:37;60066.50;;;-145.46;100.00
76478;BME280;65309;49.790;18.972;2024-03-02T12:35:40;60112.75;;;-145.46;100.00
76478;BME280;65309;49.790;18.972;2024-03-02T12:40:43;60121.16;;;-145.46;100.00
76478;BME280;65309;49.790;18.972;2024-03-02T12:45:46;60112.75;;;-145.46;100.00
76478;BME280;65309;49.790;18.972;2024-03-02T12:50:49;60133.78;;;-145.46;100.00
76478;BME280;65309;49.790;18.972;2024-03-02T12:55:51;60154.81;;;-145.46;100.00
76478;BME280;65309;49.790;18.972;2024-03-02T13:01:06;60119.06;;;-145.46;100.00
76478;BME280;65309;49.790;18.972;2024-03-02T13:06:11;60102.25;;;-145.46;100.00
76478;BME280;65309;49.790;18.972;2024-03-02T13:11:13;60102.25;;;-145.46;100.00
76478;BME280;65309;49.790;18.972;2024-03-02T13:16:17;60108.56;;;-145.46;100.00
76478;BME280;65309;49.790;18.972;2024-03-02T13:21:23;60123.25;;;-145.46;100.00
76478;BME280;65309;49.790;18.972;2024-03-02T13:26:25;60129.56;;;-145.46;100.00
76478;BME280;65309;49.790;18.972;2024-03-02T13:31:29;60150.59;;;-145.46;100.00
76478;BME280;65309;49.790;18.972;2024-03-02T13:36:31;60125.38;;;-145.46;100.00
76478;BME280;65309;49.790;18.972;2024-03-02T13:41:33;60108.56;;;-145.46;100.00
76478;BME280;65309;49.790;18.972;2024-03-02T13:46:37;60133.78;;;-145.46;100.00
76478;BME280;65309;49.790;18.972;2024-03-02T13:51:39;60129.56;;;-145.46;100.00
76478;BME280;65309;49.790;18.972;2024-03-02T13:56:41;60133.78;;;-145.46;100.00
76478;BME280;65309;49.790;18.972;2024-03-02T14:01:45;60121.16;;;-145.46;100.00
76478;BME280;65309;49.790;18.972;2024-03-02T14:06:48;60140.09;;;-145.46;100.00
76478;BME280;65309;49.790;18.972;2024-03-02T14:11:50;60108.56;;;-145.46;100.00
76478;BME280;65309;49.790;18.972;2024-03-02T14:16:55;60112.75;;;-145.46;100.00
76478;BME280;65309;49.790;18.972;2024-03-02T14:22:06;60112.75;;;-145.46;100.00
76478;BME280;65309;49.790;18.972;2024-03-02T14:27:08;60142.19;;;-145.46;100.00
76478;BME280;65309;49.790;18.972;2024-03-02T14:32:27;60110.66;;;-145.46;100.00
76478;BME280;65309;49.790;18.972;2024-03-02T14:37:29;60140.09;;;-145.46;100.00
76478;BME280;65309;49.790;18.972;2024-03-02T14:42:32;60125.38;;;-145.46;100.00
76478;BME280;65309;49.790;18.972;2024-03-02T14:47:36;60129.56;;;-145.46;100.00
76478;BME280;65309;49.790;18.972;2024-03-02T14:52:38;60144.28;;;-145.46;100.00
76478;BME280;65309;49.790;18.972;2024-03-02T14:57:40;60114.84;;;-145.46;100.00
76478;BME280;65309;49.790;18.972;2024-03-02T15:02:44;60137.97;;;-145.46;100.00
76478;BME280;65309;49.790;18.972;2024-03-02T15:07:46;60121.16;;;-145.46;100.00
76478;BME280;65309;49.790;18.972;2024-03-02T15:12:48;60146.38;;;-145.46;100.00
76478;BME280;65309;49.790;18.972;2024-03-02T15:17:52;60127.47;;;-145.46;100.00
76478;BME280;65309;49.790;18.972;2024-03-02T15:22:54;60142.19;;;-145.46;100.00
76478;BME280;65309;49.790;18.972;2024-03-02T15:27:56;60108.56;;;-145.46;100.00
76478;BME280;65309;49.790;18.972;2024-03-02T15:33:00;60137.97;;;-145.46;100.00
76478;BME280;65309;49.790;18.972;2024-03-02T15:38:02;60142.19;;;-145.46;100.00
76478;BME280;65309;49.790;18.972;2024-03-02T15:43:08;60135.88;;;-145.46;100.00
76478;BME280;65309;49.790;18.972;2024-03-02T15:48:12;60129.56;;;-145.46;100.00
76478;BME280;65309;49.790;18.972;2024-03-02T15:53:14;60146.38;;;-145.46;100.00
76478;BME280;65309;49.790;18.972;2024-03-02T15:58:16;60171.63;;;-145.46;100.00
76478;BME280;65309;49.790;18.972;2024-03-02T16:03:20;60129.56;;;-145.46;100.00
76478;BME280;65309;49.790;18.972;2024-03-02T16:08:22;60135.88;;;-145.46;100.00
76478;BME280;65309;49.790;18.972;2024-03-02T16:13:24;60152.69;;;-145.46;100.00
76478;BME280;65309;49.790;18.972;2024-03-02T16:18:28;60127.47;;;-145.46;100.00
76478;BME280;65309;49.790;18.972;2024-03-02T16:23:30;60133.78;;;-145.46;100.00
76478;BME280;65309;49.790;18.972;2024-03-02T16:28:32;60106.44;;;-145.46;100.00
76478;BME280;65309;49.790;18.972;2024-03-02T16:33:35;60150.59;;;-145.46;100.00
76478;BME280;65309;49.790;18.972;2024-03-02T16:38:38;60154.81;;;-145.46;100.00
76478;BME280;65309;49.790;18.972;2024-03-02T16:43:40;60110.66;;;-145.46;100.00
76478;BME280;65309;49.790;18.972;2024-03-02T16:48:45;60133.78;;;-145.46;100.00
76478;BME280;65309;49.790;18.972;2024-03-02T16:53:47;60173.72;;;-145.46;100.00
76478;BME280;65309;49.790;18.972;2024-03-02T16:58:49;60140.09;;;-145.46;100.00
76478;BME280;65309;49.790;18.972;2024-03-02T17:03:52;60148.50;;;-145.46;100.00
76478;BME280;65309;49.790;18.972;2024-03-02T17:08:55;60104.34;;;-145.46;100.00
76478;BME280;65309;49.790;18.972;2024-03-02T17:13:57;60156.91;;;-145.46;100.00
76478;BME280;65309;49.790;18.972;2024-03-02T17:19:01;60108.56;;;-145.46;100.00
76478;BME280;65309;49.790;18.972;2024-03-02T17:24:04;60192.63;;;-145.46;100.00
76478;BME280;65309;49.790;18.972;2024-03-02T17:29:06;60137.97;;;-145.46;100.00
76478;BME280;65309;49.790;18.972;2024-03-02T17:34:09;60165.31;;;-145.46;100.00
76478;BME280;65309;49.790;18.972;2024-03-02T17:39:12;60133.78;;;-145.46;100.00
76478;BME280;65309;49.790;18.972;2024-03-02T17:44:14;60135.88;;;-145.46;100.00
76478;BME280;65309;49.790;18.972;2024-03-02T17:49:18;60165.31;;;-145.46;100.00
76478;BME280;65309;49.790;18.972;2024-03-02T17:54:22;60159.00;;;-145.46;100.00
76478;BME280;65309;49.790;18.972;2024-03-02T17:59:24;60196.84;;;-145.46;100.00
76478;BME280;65309;49.790;18.972;2024-03-02T18:04:27;60154.81;;;-145.46;100.00
76478;BME280;65309;49.790;18.972;2024-03-02T18:09:30;60217.88;;;-145.46;100.00
76478;BME280;65309;49.790;18.972;2024-03-02T18:14:33;60184.22;;;-145.46;100.00
76478;BME280;65309;49.790;18.972;2024-03-02T18:19:39;60140.09;;;-145.46;100.00
76478;BME280;65309;49.790;18.972;2024-03-02T18:24:41;60127.47;;;-145.46;100.00
76478;BME280;65309;49.790;18.972;2024-03-02T18:29:44;60163.22;;;-145.46;100.00
76478;BME280;65309;49.790;18.972;2024-03-02T18:34:47;60129.56;;;-145.46;100.00
76478;BME280;65309;49.790;18.972;2024-03-02T18:39:50;60163.22;;;-145.46;100.00
76478;BME280;65309;49.790;18.972;2024-03-02T18:44:53;60186.34;;;-145.46;100.00
76478;BME280;65309;49.790;18.972;2024-03-02T18:49:57;60142.19;;;-145.46;100.00
76478;BME280;65309;49.790;18.972;2024-03-02T18:54:59;60144.28;;;-145.46;100.00
76478;BME280;65309;49.790;18.972;2024-03-02T19:00:05;60163.22;;;-145.46;100.00
76478;BME280;65309;49.790;18.972;2024-03-02T19:05:17;60133.78;;;-145.46;100.00
76478;BME280;65309;49.790;18.972;2024-03-02T19:10:20;60127.47;;;-145.46;100.00
76478;BME280;65309;49.790;18.972;2024-03-02T19:15:22;60154.81;;;-145.46;100.00
76478;BME280;65309;49.790;18.972;2024-03-02T19:20:26;60154.81;;;-145.46;100.00
76478;BME280;65309;49.790;18.972;2024-03-02T19:25:28;60150.59;;;-145.46;100.00
76478;BME280;65309;49.790;18.972;2024-03-02T19:30:30;60148.50;;;-145.46;100.00
76478;BME280;65309;49.790;18.972;2024-03-02T19:35:34;60146.38;;;-145.46;100.00
76478;BME280;65309;49.790;18.972;2024-03-02T19:40:37;60127.47;;;-145.46;100.00
76478;BME280;65309;49.790;18.972;2024-03-02T19:45:39;60150.59;;;-145.46;100.00
76478;BME280;65309;49.790;18.972;2024-03-02T19:50:43;60169.50;;;-145.46;100.00
76478;BME280;65309;49.790;18.972;2024-03-02T19:55:45;60127.47;;;-145.46;100.00
76478;BME280;65309;49.790;18.972;2024-03-02T20:00:49;60154.81;;;-145.46;100.00
76478;BME280;65309;49.790;18.972;2024-03-02T20:05:53;60146.38;;;-145.46;100.00
76478;BME280;65309;49.790;18.972;2024-03-02T20:10:55;60110.66;;;-145.46;100.00
76478;BME280;65309;49.790;18.972;2024-03-02T20:15:58;60159.00;;;-145.46;100.00
76478;BME280;65309;49.790;18.972;2024-03-02T20:21:03;60159.00;;;-145.46;100.00
76478;BME280;65309;49.790;18.972;2024-03-02T20:26:05;60165.31;;;-145.46;100.00
76478;BME280;65309;49.790;18.972;2024-03-02T20:31:07;60156.91;;;-145.46;100.00
76478;BME280;65309;49.790;18.972;2024-03-02T20:36:13;60133.78;;;-145.46;100.00
76478;BME280;65309;49.790;18.972;2024-03-02T20:41:19;60125.38;;;-145.46;100.00
76478;BME280;65309;49.790;18.972;2024-03-02T20:46:22;60129.56;;;-145.46;100.00
76478;BME280;65309;49.790;18.972;2024-03-02T20:51:26;60159.00;;;-145.46;100.00
76478;BME280;65309;49.790;18.972;2024-03-02T20:56:31;60171.63;;;-145.46;100.00
76478;BME280;65309;49.790;18.972;2024-03-02T21:01:37;60150.59;;;-145.46;100.00
76478;BME280;65309;49.790;18.972;2024-03-02T21:06:41;60135.88;;;-145.46;100.00
76478;BME280;65309;49.790;18.972;2024-03-02T21:11:44;60112.75;;;-145.46;100.00
76478;BME280;65309;49.790;18.972;2024-03-02T21:16:49;60167.41;;;-145.46;100.00
76478;BME280;65309;49.790;18.972;2024-03-02T21:21:53;60133.78;;;-145.46;100.00
76478;BME280;65309;49.790;18.972;2024-03-02T21:26:57;60150.59;;;-145.46;100.00
76478;BME280;65309;49.790;18.972;2024-03-02T21:31:59;60182.13;;;-145.46;100.00
76478;BME280;65309;49.790;18.972;2024-03-02T21:37:03;60137.97;;;-145.46;100.00
76478;BME280;65309;49.790;18.972;2024-03-02T21:42:05;60142.19;;;-145.46;100.00
76478;BME280;65309;49.790;18.972;2024-03-02T21:47:09;60175.81;;;-145.46;100.00
76478;BME280;65309;49.790;18.972;2024-03-02T21:52:13;60146.38;;;-145.46;100.00
76478;BME280;65309;49.790;18.972;2024-03-02T21:57:15;60171.63;;;-145.46;100.00
76478;BME280;65309;49.790;18.972;2024-03-02T22:02:23;60137.97;;;-145.46;100.00
76478;BME280;65309;49.790;18.972;2024-03-02T22:07:27;60198.94;;;-145.46;100.00
76478;BME280;65309;49.790;18.972;2024-03-02T22:12:30;60171.63;;;-145.46;100.00
76478;BME280;65309;49.790;18.972;2024-03-02T22:17:32;60150.59;;;-145.46;100.00
76478;BME280;65309;49.790;18.972;2024-03-02T22:22:36;60159.00;;;-145.46;100.00
76478;BME280;65309;49.790;18.972;2024-03-02T22:27:41;60150.59;;;-145.46;100.00
76478;BME280;65309;49.790;18.972;2024-03-02T22:32:44;60131.69;;;-145.46;100.00
76478;BME280;65309;49.790;18.972;2024-03-02T22:37:48;60137.97;;;-145.46;100.00
76478;BME280;65309;49.790;18.972;2024-03-02T22:42:50;60146.38;;;-145.46;100.00
76478;BME280;65309;49.790;18.972;2024-03-02T22:47:53;60171.63;;;-145.46;100.00
76478;BME280;65309;49.790;18.972;2024-03-02T22:52:57;60154.81;;;-145.46;100.00
76478;BME280;65309;49.790;18.972;2024-03-02T22:58:00;60146.38;;;-145.46;100.00
76478;BME280;65309;49.790;18.972;2024-03-02T23:03:03;60167.41;;;-145.46;100.00
76478;BME280;65309;49.790;18.972;2024-03-02T23:08:07;60142.19;;;-145.46;100.00
76478;BME280;65309;49.790;18.972;2024-03-02T23:13:09;60142.19;;;-145.46;100.00
76478;BME280;65309;49.790;18.972;2024-03-02T23:18:12;60163.22;;;-145.46;100.00
76478;BME280;65309;49.790;18.972;2024-03-02T23:23:15;60150.59;;;-145.46;100.00
76478;BME280;65309;49.790;18.972;2024-03-02T23:28:18;60121.16;;;-145.46;100.00
76478;BME280;65309;49.790;18.972;2024-03-02T23:33:20;60167.41;;;-145.46;100.00
76478;BME280;65309;49.790;18.972;2024-03-02T23:38:24;60146.38;;;-145.46;100.00
76478;BME280;65309;49.790;18.972;2024-03-02T23:43:26;60184.22;;;-145.46;100.00
76478;BME280;65309;49.790;18.972;2024-03-02T23:48:28;60108.56;;;-145.46;100.00
76478;BME280;65309;49.790;18.972;2024-03-02T23:53:32;60104.34;;;-145.46;100.00
76478;BME280;65309;49.790;18.972;2024-03-02T23:58:34;60190.53;;;-145.46;100.00
